EDHL Airport Information

Runway Information
Runway 07 Length 6896 ft width 197 ft
Elevation 53 ft Threshold 984 ft Heading 72
Runway 25 Length 6896 ft Width 197 ft
Elevation 47 ft Threshold 0 ft Heading 252
Airport Frequencies
Type AFIS Name BREMEN INF Frequency 125.1 MHZ
Type ATIS Name ATIS Frequency 119.925 MHZ
Type GND Name GND Frequency 121.775 MHZ
Type INFO Name INFO Frequency 128.7 MHZ
Type RDR Name BREMEN RAD Frequency 124.225 MHZ
Type TWR Name TWR Frequency 128.7 MHZ
Airport Navaids
Type VOR Name Lubeck Frequency 110600 KHZ
Type DME Name Lubeck Blankensee Frequency 115650 KHZ
Type NDB Name Lubeck Blankensee Frequency 394 KHZ
Airport Weather Information & NOTAM
ADDS - METARS form results

(0227 UTC 23 January 2022)
Data provider http://aviationweather.gov/metar/data/
 
METAR text: EDHL 230220Z AUTO 27005KT 230V300 4000 // FEW004/// 06/05 Q1030
Conditions at: EDHL (LUEBECK/BLANKENS, DE) observed 0220 UTC 23 January 2022
Temperature: 6.0°C (43°F)
Dewpoint: 5.0°C (41°F) [RH = 93%]
Pressure (altimeter): 30.41 inches Hg (1030.0 mb)
Winds: from the W (270 degrees) at 6 MPH (5 knots; 2.6 m/s)
Visibility: 2.49 miles (4.01 km)
Ceiling: at least 12,000 feet AGL
Clouds: few clouds at 400 feet AGL
Weather: no significant weather observed at this time

METAR text: EDHL 230150Z AUTO 27005KT 230V300 6000 // FEW004/// 05/05 Q1030
Conditions at: EDHL (LUEBECK/BLANKENS, DE) observed 0150 UTC 23 January 2022
Temperature: 5.0°C (41°F)
Dewpoint: 5.0°C (41°F) [RH = 100%]
Pressure (altimeter): 30.41 inches Hg (1030.0 mb)
Winds: from the W (270 degrees) at 6 MPH (5 knots; 2.6 m/s)
Visibility: 4 miles ( 6 km)
Ceiling: at least 12,000 feet AGL
Clouds: few clouds at 400 feet AGL
Weather: no significant weather observed at this time

Forecast for: EDHL (LUEBECK/BLANKENS, DE)
Text: TAF EDHL 221700Z 2218/2221 28005KT 9999 SCT007 BKN020
Forecast period: 1800 to 2100 UTC 22 January 2022
Forecast type: FROM: standard forecast or significant change
Winds: from the W (280 degrees) at 6 MPH (5 knots; 2.6 m/s)
Visibility: 6 or more miles (10+ km)
Ceiling: 2000 feet AGL
Clouds: scattered clouds at 700 feet AGL
broken clouds at 2000 feet AGL
Weather: no significant weather forecast for this period
Text: TEMPO 2218/2221 3500 -DZ BKN007
Forecast period: 1800 to 2100 UTC 22 January 2022
Forecast type: TEMPORARY: The following changes expected for less than half the time period
Visibility: 2.17 miles (3.49 km)
Ceiling: 700 feet AGL
Clouds: broken clouds at 700 feet AGL
Weather: -DZ  (light drizzle)